createdAt,value
2023-06-21T00:00:37.974Z,25.44
2023-06-21T00:03:40.112Z,25.40
2023-06-21T00:06:47.909Z,25.35
2023-06-21T00:09:50.108Z,25.33
2023-06-21T00:12:55.537Z,25.29
2023-06-21T00:15:57.671Z,25.29
2023-06-21T00:18:59.992Z,25.20
2023-06-21T00:22:03.199Z,25.27
2023-06-21T00:25:06.418Z,25.28
2023-06-21T00:28:08.575Z,25.23
2023-06-21T00:31:11.804Z,25.22
2023-06-21T00:34:14.143Z,25.17
2023-06-21T00:37:16.741Z,25.17
2023-06-21T00:40:23.106Z,25.10
2023-06-21T00:43:25.197Z,25.18
2023-06-21T00:46:27.309Z,25.36
2023-06-21T00:49:29.543Z,25.44
2023-06-21T00:52:32.958Z,25.27
2023-06-21T00:55:35.500Z,25.15
2023-06-21T00:58:37.954Z,25.10
2023-06-21T01:01:40.273Z,24.98
2023-06-21T01:04:42.769Z,25.03
2023-06-21T01:08:21.954Z,25.17
2023-06-21T01:11:33.334Z,25.21
2023-06-21T01:14:52.582Z,25.18
2023-06-21T01:17:57.636Z,25.20
2023-06-21T01:21:02.590Z,25.27
2023-06-21T01:24:27.534Z,25.23
2023-06-21T01:28:06.590Z,25.10
2023-06-21T01:31:10.337Z,25.01
2023-06-21T01:34:16.531Z,24.86
2023-06-21T01:37:18.832Z,24.92
2023-06-21T01:40:21.101Z,24.91
2023-06-21T01:43:24.062Z,24.90
2023-06-21T01:46:27.472Z,24.93
2023-06-21T01:49:31.375Z,24.91
2023-06-21T01:52:34.211Z,24.90
2023-06-21T01:55:37.167Z,24.82
2023-06-21T01:58:39.415Z,24.76
2023-06-21T02:01:44.317Z,24.78
2023-06-21T02:04:48.891Z,24.74
2023-06-21T02:07:51.286Z,24.72
2023-06-21T02:10:53.844Z,24.72
2023-06-21T02:13:56.281Z,24.76
2023-06-21T02:16:59.141Z,24.72
2023-06-21T02:20:01.458Z,24.75
2023-06-21T02:23:03.529Z,24.74
2023-06-21T02:26:05.656Z,24.80
2023-06-21T02:29:07.736Z,24.95
2023-06-21T02:32:09.950Z,24.85
2023-06-21T02:35:12.134Z,24.74
2023-06-21T02:38:14.346Z,24.64
2023-06-21T02:41:16.483Z,24.55
2023-06-21T02:44:19.154Z,24.54
2023-06-21T02:47:21.228Z,24.16
2023-06-21T02:50:23.572Z,24.43
2023-06-21T02:53:26.476Z,24.34
2023-06-21T02:56:31.406Z,24.31
2023-06-21T02:59:34.367Z,24.43
2023-06-21T03:02:36.550Z,24.48
2023-06-21T03:05:38.670Z,24.39
2023-06-21T03:08:42.048Z,24.29
2023-06-21T03:11:45.954Z,24.25
2023-06-21T03:14:48.050Z,24.27
2023-06-21T03:17:50.148Z,24.48
2023-06-21T03:20:52.313Z,24.38
2023-06-21T03:23:54.580Z,24.31
2023-06-21T03:26:57.840Z,24.25
2023-06-21T03:30:01.127Z,24.27
2023-06-21T03:33:03.329Z,24.21
2023-06-21T03:36:05.551Z,24.41
2023-06-21T03:39:07.700Z,24.35
2023-06-21T03:42:09.824Z,24.29
2023-06-21T03:45:12.332Z,24.39
2023-06-21T03:48:14.511Z,24.41
2023-06-21T03:51:16.717Z,24.28
2023-06-21T03:54:18.760Z,24.29
2023-06-21T03:57:20.862Z,24.32
2023-06-21T04:00:23.008Z,24.36
2023-06-21T04:03:25.191Z,24.30
2023-06-21T04:06:27.291Z,24.25
2023-06-21T04:09:29.387Z,24.21
2023-06-21T04:12:32.604Z,24.19
2023-06-21T04:15:35.129Z,24.23
2023-06-21T04:18:37.234Z,24.23
2023-06-21T04:21:40.846Z,24.16
2023-06-21T04:24:42.947Z,24.06
2023-06-21T04:27:46.920Z,24.11
2023-06-21T04:30:49.377Z,24.09
2023-06-21T04:33:52.765Z,24.14
2023-06-21T04:36:54.899Z,24.11
2023-06-21T04:40:08.023Z,24.04
2023-06-21T04:43:18.385Z,24.06
2023-06-21T04:46:22.822Z,24.09
2023-06-21T04:49:27.098Z,24.04
2023-06-21T04:52:29.628Z,23.98
2023-06-21T04:55:31.745Z,24.17
2023-06-21T04:58:36.832Z,23.86
2023-06-21T05:01:38.961Z,23.67
2023-06-21T05:04:41.035Z,23.47
2023-06-21T05:07:43.311Z,23.34
2023-06-21T05:10:45.403Z,23.10
2023-06-21T05:13:47.654Z,22.91
2023-06-21T05:16:49.793Z,23.05
2023-06-21T05:19:51.864Z,23.14
2023-06-21T05:22:57.051Z,23.11
2023-06-21T05:25:59.223Z,22.81
2023-06-21T05:29:01.307Z,23.01
2023-06-21T05:32:04.130Z,23.17
2023-06-21T05:35:06.724Z,23.27
2023-06-21T05:38:09.590Z,23.22
2023-06-21T05:41:11.744Z,23.12
2023-06-21T05:44:14.757Z,22.98
2023-06-21T05:47:17.004Z,23.42
2023-06-21T05:50:19.238Z,23.03
2023-06-21T05:53:21.372Z,23.21
2023-06-21T05:56:28.092Z,23.35
2023-06-21T05:59:30.231Z,23.35
2023-06-21T06:02:32.408Z,23.60
2023-06-21T06:05:34.620Z,23.66
2023-06-21T06:08:36.974Z,23.58
2023-06-21T06:11:39.317Z,23.53
2023-06-21T06:14:41.471Z,23.53
2023-06-21T06:17:43.772Z,23.52
2023-06-21T06:20:47.408Z,23.68
2023-06-21T06:23:52.126Z,23.80
2023-06-21T06:26:55.109Z,23.72
2023-06-21T06:29:57.259Z,23.55
2023-06-21T06:32:59.806Z,23.54
2023-06-21T06:36:02.046Z,23.39
2023-06-21T06:39:04.907Z,23.21
2023-06-21T06:42:07.809Z,23.09
2023-06-21T06:45:10.353Z,22.93
2023-06-21T06:48:12.465Z,23.32
2023-06-21T06:51:14.617Z,23.54
2023-06-21T06:54:16.793Z,23.74
2023-06-21T06:57:33.822Z,23.75
2023-06-21T07:00:37.966Z,23.77
2023-06-21T07:03:40.164Z,23.84
2023-06-21T07:06:42.919Z,23.68
2023-06-21T07:09:45.824Z,23.71
2023-06-21T07:12:48.626Z,23.76
2023-06-21T07:15:51.393Z,23.70
2023-06-21T07:18:53.592Z,23.73
2023-06-21T07:21:55.820Z,23.81
2023-06-21T07:24:57.933Z,23.86
2023-06-21T07:28:00.134Z,23.91
2023-06-21T07:31:04.471Z,23.76
2023-06-21T07:34:10.615Z,23.69
2023-06-21T07:37:13.569Z,23.76
2023-06-21T07:40:15.971Z,23.68
2023-06-21T07:43:19.114Z,23.67
2023-06-21T07:46:21.291Z,23.64
2023-06-21T07:49:23.566Z,23.64
2023-06-21T07:52:25.787Z,23.64
2023-06-21T07:55:28.175Z,23.66
2023-06-21T07:58:30.912Z,23.69
2023-06-21T08:01:34.528Z,23.68
2023-06-21T08:04:39.076Z,23.79
2023-06-21T08:07:41.291Z,23.68
2023-06-21T08:10:43.544Z,23.80
2023-06-21T08:13:45.760Z,23.77
2023-06-21T08:16:47.972Z,23.79
2023-06-21T08:19:50.162Z,23.81
2023-06-21T08:22:52.292Z,23.81
2023-06-21T08:25:54.486Z,23.76
2023-06-21T08:28:56.667Z,23.83
2023-06-21T08:31:58.891Z,23.83
2023-06-21T08:35:01.165Z,23.75
2023-06-21T08:38:18.444Z,23.75
2023-06-21T08:41:27.417Z,23.77
2023-06-21T08:44:29.696Z,23.68
2023-06-21T08:47:34.540Z,23.76
2023-06-21T08:50:38.857Z,23.72
2023-06-21T08:53:50.630Z,23.81
2023-06-21T08:57:04.369Z,23.75
2023-06-21T09:00:10.780Z,23.84
2023-06-21T09:03:30.442Z,23.85
2023-06-21T09:06:33.124Z,23.87
2023-06-21T09:09:36.369Z,23.86
2023-06-21T09:12:40.423Z,24.00
2023-06-21T09:15:43.299Z,24.00
2023-06-21T09:18:45.929Z,24.10
2023-06-21T09:21:48.358Z,24.04
2023-06-21T09:24:50.652Z,24.02
2023-06-21T09:27:54.250Z,23.98
2023-06-21T09:30:56.463Z,23.91
2023-06-21T09:33:58.919Z,23.97
2023-06-21T09:37:01.075Z,24.10
2023-06-21T09:40:04.452Z,24.13
2023-06-21T09:43:06.661Z,24.02
2023-06-21T09:46:10.881Z,24.06
2023-06-21T09:49:13.272Z,24.16
2023-06-21T09:52:15.985Z,24.25
2023-06-21T09:55:18.229Z,24.25
2023-06-21T09:58:20.492Z,24.23
2023-06-21T10:01:24.388Z,24.02
2023-06-21T10:04:26.757Z,24.24
2023-06-21T10:07:29.383Z,24.41
2023-06-21T10:10:34.176Z,24.49
2023-06-21T10:13:40.060Z,24.44
2023-06-21T10:16:42.432Z,24.49
2023-06-21T10:19:46.443Z,24.48
2023-06-21T10:22:53.100Z,24.45
2023-06-21T10:25:59.188Z,24.45
2023-06-21T10:29:04.519Z,24.57
2023-06-21T10:32:07.812Z,24.63
2023-06-21T10:35:16.877Z,24.79
2023-06-21T10:38:42.169Z,24.76
2023-06-21T10:41:44.839Z,25.00
2023-06-21T10:44:47.260Z,25.03
2023-06-21T10:47:50.172Z,25.08
2023-06-21T10:50:53.395Z,25.16
2023-06-21T10:53:56.206Z,25.20
2023-06-21T10:56:58.764Z,25.22
2023-06-21T11:00:08.761Z,25.27
2023-06-21T11:03:17.060Z,25.30
2023-06-21T11:06:29.221Z,25.31
2023-06-21T11:09:32.994Z,25.35
2023-06-21T11:12:38.470Z,25.40
2023-06-21T11:15:42.123Z,25.43
2023-06-21T11:18:56.421Z,25.46
2023-06-21T11:21:58.754Z,25.47
2023-06-21T11:25:17.323Z,25.50
2023-06-21T11:28:26.568Z,25.50
2023-06-21T11:31:38.794Z,25.52
2023-06-21T11:35:01.536Z,25.53
2023-06-21T11:38:03.708Z,25.59
2023-06-21T11:41:44.090Z,25.59
2023-06-21T11:44:46.724Z,25.57
2023-06-21T11:48:03.966Z,25.56
2023-06-21T11:51:10.618Z,25.59
2023-06-21T11:54:12.784Z,25.62
2023-06-21T11:57:16.566Z,25.66
2023-06-21T12:00:18.919Z,25.67
2023-06-21T12:03:23.631Z,25.68
2023-06-21T12:06:26.822Z,25.74
2023-06-21T12:09:29.033Z,25.76
2023-06-21T12:12:31.185Z,25.74
2023-06-21T12:15:33.663Z,25.71
2023-06-21T12:18:37.811Z,25.67
2023-06-21T12:21:40.396Z,25.74
2023-06-21T12:24:42.648Z,25.75
2023-06-21T12:28:15.082Z,25.77
2023-06-21T12:31:19.241Z,25.77
2023-06-21T12:34:22.267Z,25.84
2023-06-21T12:37:24.468Z,25.86
2023-06-21T12:40:26.848Z,25.89
2023-06-21T12:43:41.871Z,25.90
2023-06-21T12:46:44.022Z,25.92
2023-06-21T12:49:48.476Z,25.94
2023-06-21T12:53:01.174Z,25.95
2023-06-21T12:56:13.082Z,25.92
2023-06-21T12:59:15.695Z,25.91
2023-06-21T13:02:19.129Z,25.90
2023-06-21T13:05:21.277Z,25.92
2023-06-21T13:08:24.844Z,25.96
2023-06-21T13:11:28.059Z,25.98
2023-06-21T13:14:30.281Z,25.98
2023-06-21T13:17:32.710Z,25.96
2023-06-21T13:20:37.464Z,26.01
2023-06-21T13:23:39.752Z,26.05
2023-06-21T13:26:41.885Z,26.09
2023-06-21T13:29:44.053Z,26.16
2023-06-21T13:32:46.299Z,26.22
2023-06-21T13:35:48.593Z,26.24
2023-06-21T13:38:50.859Z,26.28
2023-06-21T13:41:54.035Z,26.33
2023-06-21T13:44:56.228Z,26.37
2023-06-21T13:47:58.437Z,26.35
2023-06-21T13:51:00.692Z,26.31
2023-06-21T13:54:02.868Z,26.36
2023-06-21T13:57:07.226Z,26.37
2023-06-21T14:00:19.186Z,26.38
2023-06-21T14:03:21.428Z,26.40
2023-06-21T14:06:23.690Z,26.46
2023-06-21T14:09:25.844Z,26.48
2023-06-21T14:12:28.336Z,26.49
2023-06-21T14:15:30.523Z,26.57
2023-06-21T14:18:46.308Z,26.57
2023-06-21T14:21:49.027Z,26.57
2023-06-21T14:24:51.356Z,26.65
2023-06-21T14:27:53.633Z,26.64
2023-06-21T14:30:57.739Z,26.66
2023-06-21T14:34:00.379Z,26.67
2023-06-21T14:37:02.555Z,26.69
2023-06-21T14:40:05.818Z,26.66
2023-06-21T14:43:07.963Z,26.60
2023-06-21T14:46:10.429Z,26.54
2023-06-21T14:49:13.020Z,26.52
2023-06-21T14:52:17.001Z,26.55
2023-06-21T14:55:19.424Z,26.63
2023-06-21T14:58:21.578Z,26.64
2023-06-21T15:01:23.733Z,26.66
2023-06-21T15:04:25.905Z,26.67
2023-06-21T15:07:28.066Z,26.65
2023-06-21T15:10:30.544Z,26.64
2023-06-21T15:13:32.998Z,26.57
2023-06-21T15:16:44.957Z,26.54
2023-06-21T15:19:48.125Z,26.51
2023-06-21T15:22:50.524Z,26.47
2023-06-21T15:25:52.656Z,26.46
2023-06-21T15:28:54.839Z,26.45
2023-06-21T15:31:57.097Z,26.43
2023-06-21T15:35:00.235Z,26.47
2023-06-21T15:38:02.541Z,26.52
2023-06-21T15:41:04.778Z,26.51
2023-06-21T15:44:07.070Z,26.52
2023-06-21T15:47:09.412Z,26.50
2023-06-21T15:50:12.684Z,26.42
2023-06-21T15:53:14.891Z,26.42
2023-06-21T15:56:17.061Z,26.46
2023-06-21T15:59:19.343Z,26.42
2023-06-21T16:02:22.118Z,26.39
2023-06-21T16:05:24.530Z,26.43
2023-06-21T16:08:26.771Z,26.43
2023-06-21T16:11:28.996Z,26.40
2023-06-21T16:14:31.155Z,26.39
2023-06-21T16:17:33.302Z,26.37
2023-06-21T16:20:35.462Z,26.38
2023-06-21T16:23:37.764Z,26.41
2023-06-21T16:26:39.910Z,26.42
2023-06-21T16:29:42.685Z,26.40
2023-06-21T16:32:44.887Z,26.38
2023-06-21T16:35:47.935Z,26.38
2023-06-21T16:38:50.200Z,26.41
2023-06-21T16:41:53.115Z,26.45
2023-06-21T16:44:55.232Z,26.45
2023-06-21T16:47:57.497Z,26.43
2023-06-21T16:50:59.702Z,26.41
2023-06-21T16:54:01.890Z,26.41
2023-06-21T16:57:04.814Z,26.38
2023-06-21T17:00:08.805Z,26.36
2023-06-21T17:03:11.380Z,26.34
2023-06-21T17:06:13.734Z,26.34
2023-06-21T17:09:16.014Z,26.37
2023-06-21T17:12:18.127Z,26.38
2023-06-21T17:15:20.307Z,26.39
2023-06-21T17:18:22.443Z,26.38
2023-06-21T17:21:24.748Z,26.38
2023-06-21T17:24:26.906Z,26.36
2023-06-21T17:27:29.236Z,26.36
2023-06-21T17:30:31.411Z,26.36
2023-06-21T17:33:33.617Z,26.36
2023-06-21T17:36:35.874Z,26.35
2023-06-21T17:39:38.519Z,26.34
2023-06-21T17:42:40.712Z,26.32
2023-06-21T17:45:42.874Z,26.37
2023-06-21T17:48:45.102Z,26.39
2023-06-21T17:51:47.329Z,26.41
2023-06-21T17:54:49.566Z,26.42
2023-06-21T17:57:53.816Z,26.42
2023-06-21T18:00:57.225Z,26.41
2023-06-21T18:03:59.956Z,26.38
2023-06-21T18:07:02.249Z,26.33
2023-06-21T18:10:04.697Z,26.32
2023-06-21T18:13:07.113Z,26.34
2023-06-21T18:16:09.400Z,26.34
2023-06-21T18:19:11.734Z,26.31
2023-06-21T18:22:15.407Z,26.28
2023-06-21T18:25:18.727Z,26.27
2023-06-21T18:28:20.848Z,26.27
2023-06-21T18:31:22.965Z,26.25
2023-06-21T18:34:25.114Z,26.25
2023-06-21T18:37:27.390Z,26.25
2023-06-21T18:40:29.725Z,26.22
2023-06-21T18:43:32.198Z,26.22
2023-06-21T18:46:34.653Z,26.21
2023-06-21T18:49:36.834Z,26.21
2023-06-21T18:52:39.001Z,26.21
2023-06-21T18:55:41.275Z,26.21
2023-06-21T18:58:43.456Z,26.19
2023-06-21T19:01:45.612Z,26.18
2023-06-21T19:04:48.137Z,26.19
2023-06-21T19:07:50.595Z,26.17
2023-06-21T19:10:52.740Z,26.15
2023-06-21T19:13:54.855Z,26.15
2023-06-21T19:16:56.959Z,26.13
2023-06-21T19:19:59.141Z,26.12
2023-06-21T19:23:01.307Z,26.11
2023-06-21T19:26:03.398Z,26.09
2023-06-21T19:29:05.645Z,26.07
2023-06-21T19:32:08.157Z,26.04
2023-06-21T19:35:18.281Z,26.06
2023-06-21T19:38:20.411Z,26.06
2023-06-21T19:41:23.032Z,26.03
2023-06-21T19:44:25.226Z,26.02
2023-06-21T19:47:29.510Z,25.99
2023-06-21T19:50:32.015Z,26.01
2023-06-21T19:53:34.217Z,26.01
2023-06-21T19:56:42.874Z,25.96
2023-06-21T19:59:45.050Z,25.93
2023-06-21T20:02:47.538Z,25.91
2023-06-21T20:05:51.893Z,25.91
2023-06-21T20:08:54.134Z,25.93
2023-06-21T20:11:56.257Z,25.95
2023-06-21T20:14:59.625Z,25.93
2023-06-21T20:18:01.788Z,25.89
2023-06-21T20:21:04.940Z,25.93
2023-06-21T20:24:07.305Z,25.96
2023-06-21T20:27:09.442Z,25.92
2023-06-21T20:30:11.807Z,25.91
2023-06-21T20:33:14.167Z,25.91
2023-06-21T20:36:16.331Z,25.88
2023-06-21T20:39:20.124Z,25.88
2023-06-21T20:42:30.335Z,25.88
2023-06-21T20:45:32.473Z,25.86
2023-06-21T20:48:34.640Z,25.89
2023-06-21T20:51:37.380Z,25.82
2023-06-21T20:54:39.510Z,25.77
2023-06-21T20:57:41.657Z,25.72
2023-06-21T21:00:45.916Z,25.76
2023-06-21T21:03:48.192Z,25.73
2023-06-21T21:06:50.364Z,25.66
2023-06-21T21:09:52.526Z,25.68
2023-06-21T21:12:55.955Z,25.67
2023-06-21T21:15:58.128Z,25.66
2023-06-21T21:19:00.224Z,25.67
2023-06-21T21:22:02.692Z,25.61
2023-06-21T21:25:05.140Z,25.64
2023-06-21T21:28:08.777Z,25.58
2023-06-21T21:31:11.260Z,25.53
2023-06-21T21:34:13.396Z,25.56
2023-06-21T21:37:15.690Z,25.56
2023-06-21T21:40:17.951Z,25.57
2023-06-21T21:43:20.339Z,25.60
2023-06-21T21:46:22.498Z,25.59
2023-06-21T21:49:24.720Z,25.56
2023-06-21T21:52:26.987Z,25.49
2023-06-21T21:55:29.161Z,25.39
2023-06-21T21:58:31.373Z,25.43
2023-06-21T22:01:34.704Z,25.44
2023-06-21T22:04:37.192Z,25.38
2023-06-21T22:07:39.619Z,25.43
2023-06-21T22:10:42.116Z,25.42
2023-06-21T22:13:45.197Z,25.34
2023-06-21T22:16:50.803Z,25.38
2023-06-21T22:19:53.128Z,25.39
2023-06-21T22:22:55.257Z,25.37
2023-06-21T22:26:06.017Z,25.32
2023-06-21T22:29:08.370Z,25.33
2023-06-21T22:32:11.374Z,25.34
2023-06-21T22:35:13.570Z,25.36
2023-06-21T22:38:15.756Z,25.35
2023-06-21T22:41:18.014Z,25.32
2023-06-21T22:44:20.239Z,25.34
2023-06-21T22:47:23.640Z,25.35
2023-06-21T22:50:26.275Z,25.31
2023-06-21T22:53:28.596Z,25.28
2023-06-21T22:56:30.860Z,25.25
2023-06-21T22:59:33.309Z,25.27
2023-06-21T23:02:35.775Z,25.25
2023-06-21T23:05:37.927Z,25.25
2023-06-21T23:08:40.993Z,25.25
2023-06-21T23:11:43.173Z,25.20
2023-06-21T23:14:47.554Z,25.14
2023-06-21T23:17:51.206Z,25.13
2023-06-21T23:20:54.393Z,25.16
2023-06-21T23:23:56.575Z,25.14
2023-06-21T23:27:07.809Z,25.07
2023-06-21T23:30:35.438Z,25.05
2023-06-21T23:33:39.269Z,25.02
2023-06-21T23:36:43.018Z,24.88
2023-06-21T23:39:54.908Z,24.99
2023-06-21T23:42:57.055Z,25.05
2023-06-21T23:46:03.235Z,25.10
2023-06-21T23:49:05.472Z,25.16
2023-06-21T23:52:08.040Z,25.25
2023-06-21T23:55:12.272Z,25.30
2023-06-21T23:58:14.447Z,25.08
